Red Leaf, Arkansas
Current Conditions -  °F | °C
As of 1:53 AM on Friday 19 Dec 2014 (Local Time) from KGLH Reporting Station
Overcast Overcast  
Wind Chill: 42°   Ceiling: 4300
Heat Index: 46°   Visibility: 8mi
Dew Point: 42°   Wind: 7mph
Humidity: 86%   Direction: 30°NNE
Pressure: 30.18"   Gusts: NA
Location:  33.3324°N, 91.3183°W
Report Text: KGLH 190753Z AUTO 03006KT 8SM OVC043 08/06 A3018 RMK AO2 SLP229 T00780056
Loading
Personal Weather Stations






























Interactive Weather Map New forecast layout! Learn more

10-Day Weather Forecast

Advertisements
Track Severe Weather on mobile